sensor_id;sensor_type;location;lat;lon;timestamp;P1;durP1;ratioP1;P2;durP2;ratioP2
27706;SDS011;36332;51.384;0.040;2023-04-06T00:02:01;39.45;;;21.60;;
27706;SDS011;36332;51.384;0.040;2023-04-06T00:04:28;37.70;;;20.33;;
27706;SDS011;36332;51.384;0.040;2023-04-06T00:06:56;37.38;;;20.10;;
27706;SDS011;36332;51.384;0.040;2023-04-06T00:09:23;37.22;;;21.17;;
27706;SDS011;36332;51.384;0.040;2023-04-06T00:11:51;34.22;;;19.92;;
27706;SDS011;36332;51.384;0.040;2023-04-06T00:14:19;36.60;;;19.90;;
27706;SDS011;36332;51.384;0.040;2023-04-06T00:16:46;29.58;;;18.90;;
27706;SDS011;36332;51.384;0.040;2023-04-06T00:19:14;33.20;;;19.50;;
27706;SDS011;36332;51.384;0.040;2023-04-06T00:21:42;31.45;;;18.73;;
27706;SDS011;36332;51.384;0.040;2023-04-06T00:24:09;34.55;;;19.25;;
27706;SDS011;36332;51.384;0.040;2023-04-06T00:26:37;30.23;;;18.70;;
27706;SDS011;36332;51.384;0.040;2023-04-06T00:29:05;35.20;;;18.13;;
27706;SDS011;36332;51.384;0.040;2023-04-06T00:31:33;32.67;;;18.05;;
27706;SDS011;36332;51.384;0.040;2023-04-06T00:34:01;29.65;;;18.55;;
27706;SDS011;36332;51.384;0.040;2023-04-06T00:36:28;28.40;;;17.65;;
27706;SDS011;36332;51.384;0.040;2023-04-06T00:38:56;28.35;;;16.83;;
27706;SDS011;36332;51.384;0.040;2023-04-06T00:41:24;27.73;;;17.13;;
27706;SDS011;36332;51.384;0.040;2023-04-06T00:43:53;26.00;;;14.73;;
27706;SDS011;36332;51.384;0.040;2023-04-06T00:46:22;22.23;;;13.95;;
27706;SDS011;36332;51.384;0.040;2023-04-06T00:48:50;23.00;;;13.50;;
27706;SDS011;36332;51.384;0.040;2023-04-06T00:51:18;19.30;;;12.27;;
27706;SDS011;36332;51.384;0.040;2023-04-06T00:53:46;15.45;;;10.95;;
27706;SDS011;36332;51.384;0.040;2023-04-06T00:56:14;13.68;;;10.40;;
27706;SDS011;36332;51.384;0.040;2023-04-06T00:58:50;15.90;;;9.95;;
27706;SDS011;36332;51.384;0.040;2023-04-06T01:01:18;14.82;;;10.05;;
27706;SDS011;36332;51.384;0.040;2023-04-06T01:03:48;12.57;;;9.57;;
27706;SDS011;36332;51.384;0.040;2023-04-06T01:06:18;17.73;;;10.00;;
27706;SDS011;36332;51.384;0.040;2023-04-06T01:08:55;12.48;;;8.18;;
27706;SDS011;36332;51.384;0.040;2023-04-06T01:11:25;12.73;;;8.45;;
27706;SDS011;36332;51.384;0.040;2023-04-06T01:13:53;9.90;;;7.00;;
27706;SDS011;36332;51.384;0.040;2023-04-06T01:16:36;12.15;;;7.75;;
27706;SDS011;36332;51.384;0.040;2023-04-06T01:19:12;10.48;;;6.97;;
27706;SDS011;36332;51.384;0.040;2023-04-06T01:21:45;10.18;;;6.72;;
27706;SDS011;36332;51.384;0.040;2023-04-06T01:24:27;6.90;;;5.72;;
27706;SDS011;36332;51.384;0.040;2023-04-06T01:27:30;7.93;;;5.68;;
27706;SDS011;36332;51.384;0.040;2023-04-06T01:30:35;6.90;;;5.68;;
27706;SDS011;36332;51.384;0.040;2023-04-06T01:33:21;7.82;;;6.07;;
27706;SDS011;36332;51.384;0.040;2023-04-06T01:36:08;7.45;;;5.55;;
27706;SDS011;36332;51.384;0.040;2023-04-06T01:38:36;6.95;;;5.18;;
27706;SDS011;36332;51.384;0.040;2023-04-06T01:41:04;6.10;;;5.07;;
27706;SDS011;36332;51.384;0.040;2023-04-06T01:43:44;6.57;;;5.05;;
27706;SDS011;36332;51.384;0.040;2023-04-06T01:46:13;6.32;;;5.00;;
27706;SDS011;36332;51.384;0.040;2023-04-06T01:48:42;7.32;;;5.22;;
27706;SDS011;36332;51.384;0.040;2023-04-06T01:51:17;6.30;;;5.63;;
27706;SDS011;36332;51.384;0.040;2023-04-06T01:53:51;5.97;;;4.68;;
27706;SDS011;36332;51.384;0.040;2023-04-06T01:56:21;5.72;;;4.70;;
27706;SDS011;36332;51.384;0.040;2023-04-06T01:59:00;6.63;;;4.60;;
27706;SDS011;36332;51.384;0.040;2023-04-06T02:01:35;8.07;;;4.93;;
27706;SDS011;36332;51.384;0.040;2023-04-06T02:04:03;7.35;;;4.43;;
27706;SDS011;36332;51.384;0.040;2023-04-06T02:06:31;4.80;;;4.28;;
27706;SDS011;36332;51.384;0.040;2023-04-06T02:09:00;7.43;;;4.72;;
27706;SDS011;36332;51.384;0.040;2023-04-06T02:11:28;4.72;;;4.22;;
27706;SDS011;36332;51.384;0.040;2023-04-06T02:13:57;4.50;;;3.90;;
27706;SDS011;36332;51.384;0.040;2023-04-06T02:16:28;4.18;;;3.75;;
27706;SDS011;36332;51.384;0.040;2023-04-06T02:18:56;4.55;;;3.90;;
27706;SDS011;36332;51.384;0.040;2023-04-06T02:21:24;4.18;;;3.78;;
27706;SDS011;36332;51.384;0.040;2023-04-06T02:23:51;4.40;;;3.92;;
27706;SDS011;36332;51.384;0.040;2023-04-06T02:26:19;4.15;;;3.67;;
27706;SDS011;36332;51.384;0.040;2023-04-06T02:28:47;3.90;;;3.55;;
27706;SDS011;36332;51.384;0.040;2023-04-06T02:31:14;5.15;;;3.80;;
27706;SDS011;36332;51.384;0.040;2023-04-06T02:33:44;4.43;;;3.35;;
27706;SDS011;36332;51.384;0.040;2023-04-06T02:36:14;6.65;;;3.83;;
27706;SDS011;36332;51.384;0.040;2023-04-06T02:38:42;3.72;;;3.38;;
27706;SDS011;36332;51.384;0.040;2023-04-06T02:41:10;4.35;;;3.85;;
27706;SDS011;36332;51.384;0.040;2023-04-06T02:43:38;4.68;;;4.25;;
27706;SDS011;36332;51.384;0.040;2023-04-06T02:46:14;6.28;;;5.68;;
27706;SDS011;36332;51.384;0.040;2023-04-06T02:48:42;6.03;;;5.38;;
27706;SDS011;36332;51.384;0.040;2023-04-06T02:51:09;6.18;;;5.22;;
27706;SDS011;36332;51.384;0.040;2023-04-06T02:53:38;6.90;;;6.18;;
27706;SDS011;36332;51.384;0.040;2023-04-06T02:56:06;6.93;;;5.90;;
27706;SDS011;36332;51.384;0.040;2023-04-06T02:58:42;8.57;;;6.63;;
27706;SDS011;36332;51.384;0.040;2023-04-06T03:01:10;7.57;;;6.38;;
27706;SDS011;36332;51.384;0.040;2023-04-06T03:03:40;6.43;;;5.82;;
27706;SDS011;36332;51.384;0.040;2023-04-06T03:06:14;6.30;;;5.50;;
27706;SDS011;36332;51.384;0.040;2023-04-06T03:08:42;8.20;;;5.47;;
27706;SDS011;36332;51.384;0.040;2023-04-06T03:11:11;5.28;;;4.20;;
27706;SDS011;36332;51.384;0.040;2023-04-06T03:13:41;3.70;;;3.35;;
27706;SDS011;36332;51.384;0.040;2023-04-06T03:16:09;3.78;;;3.47;;
27706;SDS011;36332;51.384;0.040;2023-04-06T03:18:38;3.33;;;2.42;;
27706;SDS011;36332;51.384;0.040;2023-04-06T03:21:06;3.35;;;2.80;;
27706;SDS011;36332;51.384;0.040;2023-04-06T03:23:43;1.88;;;1.75;;
27706;SDS011;36332;51.384;0.040;2023-04-06T03:26:11;3.25;;;2.03;;
27706;SDS011;36332;51.384;0.040;2023-04-06T03:28:39;1.80;;;1.70;;
27706;SDS011;36332;51.384;0.040;2023-04-06T03:31:07;1.70;;;1.60;;
27706;SDS011;36332;51.384;0.040;2023-04-06T03:34:10;1.48;;;1.38;;
27706;SDS011;36332;51.384;0.040;2023-04-06T03:36:37;1.20;;;1.10;;
27706;SDS011;36332;51.384;0.040;2023-04-06T03:39:05;1.17;;;1.15;;
27706;SDS011;36332;51.384;0.040;2023-04-06T03:41:37;3.00;;;1.40;;
27706;SDS011;36332;51.384;0.040;2023-04-06T03:44:20;1.70;;;1.60;;
27706;SDS011;36332;51.384;0.040;2023-04-06T03:46:48;1.88;;;1.67;;
27706;SDS011;36332;51.384;0.040;2023-04-06T03:49:16;2.42;;;2.22;;
27706;SDS011;36332;51.384;0.040;2023-04-06T03:51:48;2.45;;;2.08;;
27706;SDS011;36332;51.384;0.040;2023-04-06T03:54:15;2.78;;;2.58;;
27706;SDS011;36332;51.384;0.040;2023-04-06T03:56:43;2.90;;;2.70;;
27706;SDS011;36332;51.384;0.040;2023-04-06T03:59:10;3.53;;;3.22;;
27706;SDS011;36332;51.384;0.040;2023-04-06T04:01:38;6.15;;;4.32;;
27706;SDS011;36332;51.384;0.040;2023-04-06T04:04:06;4.82;;;4.10;;
27706;SDS011;36332;51.384;0.040;2023-04-06T04:06:33;5.85;;;5.25;;
27706;SDS011;36332;51.384;0.040;2023-04-06T04:09:04;7.68;;;6.40;;
27706;SDS011;36332;51.384;0.040;2023-04-06T04:11:32;10.20;;;8.57;;
27706;SDS011;36332;51.384;0.040;2023-04-06T04:14:00;10.43;;;8.55;;
27706;SDS011;36332;51.384;0.040;2023-04-06T04:16:28;10.18;;;8.13;;
27706;SDS011;36332;51.384;0.040;2023-04-06T04:18:56;11.68;;;9.65;;
27706;SDS011;36332;51.384;0.040;2023-04-06T04:21:25;13.38;;;10.05;;
27706;SDS011;36332;51.384;0.040;2023-04-06T04:23:55;15.43;;;11.70;;
27706;SDS011;36332;51.384;0.040;2023-04-06T04:26:22;15.75;;;11.73;;
27706;SDS011;36332;51.384;0.040;2023-04-06T04:28:50;16.80;;;11.57;;
27706;SDS011;36332;51.384;0.040;2023-04-06T04:31:18;17.58;;;13.15;;
27706;SDS011;36332;51.384;0.040;2023-04-06T04:33:51;20.88;;;12.70;;
27706;SDS011;36332;51.384;0.040;2023-04-06T04:36:25;17.85;;;13.10;;
27706;SDS011;36332;51.384;0.040;2023-04-06T04:38:55;17.58;;;12.82;;
27706;SDS011;36332;51.384;0.040;2023-04-06T04:41:23;20.25;;;13.13;;
27706;SDS011;36332;51.384;0.040;2023-04-06T04:43:51;20.35;;;13.98;;
27706;SDS011;36332;51.384;0.040;2023-04-06T04:46:22;18.60;;;13.48;;
27706;SDS011;36332;51.384;0.040;2023-04-06T04:48:50;21.98;;;14.25;;
27706;SDS011;36332;51.384;0.040;2023-04-06T04:51:18;20.05;;;13.38;;
27706;SDS011;36332;51.384;0.040;2023-04-06T04:54:05;20.48;;;13.75;;
27706;SDS011;36332;51.384;0.040;2023-04-06T04:56:33;23.45;;;14.23;;
27706;SDS011;36332;51.384;0.040;2023-04-06T04:59:10;20.00;;;13.20;;
27706;SDS011;36332;51.384;0.040;2023-04-06T05:01:41;19.40;;;14.23;;
27706;SDS011;36332;51.384;0.040;2023-04-06T05:04:26;20.27;;;14.20;;
27706;SDS011;36332;51.384;0.040;2023-04-06T05:07:04;25.42;;;15.82;;
27706;SDS011;36332;51.384;0.040;2023-04-06T05:09:38;22.88;;;14.43;;
27706;SDS011;36332;51.384;0.040;2023-04-06T05:12:06;19.52;;;13.90;;
27706;SDS011;36332;51.384;0.040;2023-04-06T05:14:41;23.92;;;14.55;;
27706;SDS011;36332;51.384;0.040;2023-04-06T05:17:13;24.23;;;13.90;;
27706;SDS011;36332;51.384;0.040;2023-04-06T05:19:41;26.45;;;15.25;;
27706;SDS011;36332;51.384;0.040;2023-04-06T05:22:09;26.35;;;15.57;;
27706;SDS011;36332;51.384;0.040;2023-04-06T05:24:41;25.67;;;16.10;;
27706;SDS011;36332;51.384;0.040;2023-04-06T05:27:09;22.88;;;15.32;;
27706;SDS011;36332;51.384;0.040;2023-04-06T05:29:38;23.02;;;13.88;;
27706;SDS011;36332;51.384;0.040;2023-04-06T05:32:05;26.23;;;14.68;;
27706;SDS011;36332;51.384;0.040;2023-04-06T05:34:34;31.17;;;16.85;;
27706;SDS011;36332;51.384;0.040;2023-04-06T05:37:04;24.05;;;13.68;;
27706;SDS011;36332;51.384;0.040;2023-04-06T05:39:31;22.48;;;14.27;;
27706;SDS011;36332;51.384;0.040;2023-04-06T05:42:02;32.13;;;15.85;;
27706;SDS011;36332;51.384;0.040;2023-04-06T05:44:49;27.58;;;15.20;;
27706;SDS011;36332;51.384;0.040;2023-04-06T05:47:18;24.73;;;14.13;;
27706;SDS011;36332;51.384;0.040;2023-04-06T05:49:51;27.48;;;14.95;;
27706;SDS011;36332;51.384;0.040;2023-04-06T05:52:28;28.83;;;15.80;;
27706;SDS011;36332;51.384;0.040;2023-04-06T05:54:56;25.35;;;13.98;;
27706;SDS011;36332;51.384;0.040;2023-04-06T05:57:24;30.13;;;16.05;;
27706;SDS011;36332;51.384;0.040;2023-04-06T05:59:52;26.63;;;13.77;;
27706;SDS011;36332;51.384;0.040;2023-04-06T06:02:21;28.75;;;15.63;;
27706;SDS011;36332;51.384;0.040;2023-04-06T06:04:51;29.10;;;15.18;;
27706;SDS011;36332;51.384;0.040;2023-04-06T06:07:19;26.27;;;14.30;;
27706;SDS011;36332;51.384;0.040;2023-04-06T06:09:56;29.92;;;14.70;;
27706;SDS011;36332;51.384;0.040;2023-04-06T06:12:30;26.13;;;14.35;;
27706;SDS011;36332;51.384;0.040;2023-04-06T06:14:59;27.25;;;14.13;;
27706;SDS011;36332;51.384;0.040;2023-04-06T06:17:29;24.27;;;12.82;;
27706;SDS011;36332;51.384;0.040;2023-04-06T06:19:57;22.13;;;12.10;;
27706;SDS011;36332;51.384;0.040;2023-04-06T06:22:26;22.45;;;13.40;;
27706;SDS011;36332;51.384;0.040;2023-04-06T06:24:54;23.83;;;12.85;;
27706;SDS011;36332;51.384;0.040;2023-04-06T06:27:23;26.70;;;13.02;;
27706;SDS011;36332;51.384;0.040;2023-04-06T06:29:51;22.73;;;13.48;;
27706;SDS011;36332;51.384;0.040;2023-04-06T06:32:19;24.60;;;13.32;;
27706;SDS011;36332;51.384;0.040;2023-04-06T06:34:50;23.65;;;13.52;;
27706;SDS011;36332;51.384;0.040;2023-04-06T06:37:19;19.10;;;12.35;;
27706;SDS011;36332;51.384;0.040;2023-04-06T06:39:47;21.48;;;11.65;;
27706;SDS011;36332;51.384;0.040;2023-04-06T06:42:15;22.13;;;12.75;;
27706;SDS011;36332;51.384;0.040;2023-04-06T06:44:53;20.98;;;11.65;;
27706;SDS011;36332;51.384;0.040;2023-04-06T06:47:22;16.75;;;10.55;;
27706;SDS011;36332;51.384;0.040;2023-04-06T06:49:50;20.10;;;10.88;;
27706;SDS011;36332;51.384;0.040;2023-04-06T06:52:17;12.55;;;8.93;;
27706;SDS011;36332;51.384;0.040;2023-04-06T06:54:45;15.95;;;10.18;;
27706;SDS011;36332;51.384;0.040;2023-04-06T06:57:13;12.52;;;9.15;;
27706;SDS011;36332;51.384;0.040;2023-04-06T06:59:40;13.38;;;8.70;;
27706;SDS011;36332;51.384;0.040;2023-04-06T07:02:08;11.40;;;8.50;;
27706;SDS011;36332;51.384;0.040;2023-04-06T07:04:36;12.23;;;8.48;;
27706;SDS011;36332;51.384;0.040;2023-04-06T07:07:04;11.75;;;7.88;;
27706;SDS011;36332;51.384;0.040;2023-04-06T07:09:31;10.73;;;8.07;;
27706;SDS011;36332;51.384;0.040;2023-04-06T07:12:00;14.10;;;8.80;;
27706;SDS011;36332;51.384;0.040;2023-04-06T07:14:29;10.73;;;7.65;;
27706;SDS011;36332;51.384;0.040;2023-04-06T07:16:56;13.30;;;8.90;;
27706;SDS011;36332;51.384;0.040;2023-04-06T07:19:24;12.63;;;8.65;;
27706;SDS011;36332;51.384;0.040;2023-04-06T07:21:52;11.15;;;7.85;;
27706;SDS011;36332;51.384;0.040;2023-04-06T07:24:19;12.10;;;8.82;;
27706;SDS011;36332;51.384;0.040;2023-04-06T07:26:47;11.98;;;8.25;;
27706;SDS011;36332;51.384;0.040;2023-04-06T07:29:14;12.90;;;8.10;;
27706;SDS011;36332;51.384;0.040;2023-04-06T07:31:43;12.98;;;8.50;;
27706;SDS011;36332;51.384;0.040;2023-04-06T07:34:10;11.10;;;7.93;;
27706;SDS011;36332;51.384;0.040;2023-04-06T07:36:39;9.48;;;7.22;;
27706;SDS011;36332;51.384;0.040;2023-04-06T07:39:06;8.95;;;7.10;;
27706;SDS011;36332;51.384;0.040;2023-04-06T07:41:35;9.02;;;6.75;;
27706;SDS011;36332;51.384;0.040;2023-04-06T07:44:03;9.15;;;6.95;;
27706;SDS011;36332;51.384;0.040;2023-04-06T07:46:32;8.73;;;6.25;;
27706;SDS011;36332;51.384;0.040;2023-04-06T07:49:01;7.78;;;6.47;;
27706;SDS011;36332;51.384;0.040;2023-04-06T07:51:31;9.15;;;6.35;;
27706;SDS011;36332;51.384;0.040;2023-04-06T07:53:59;7.35;;;5.57;;
27706;SDS011;36332;51.384;0.040;2023-04-06T07:56:27;8.68;;;5.55;;
27706;SDS011;36332;51.384;0.040;2023-04-06T07:58:55;7.10;;;5.07;;
27706;SDS011;36332;51.384;0.040;2023-04-06T08:01:24;7.38;;;5.07;;
27706;SDS011;36332;51.384;0.040;2023-04-06T08:03:52;5.50;;;4.93;;
27706;SDS011;36332;51.384;0.040;2023-04-06T08:06:19;9.35;;;4.47;;
27706;SDS011;36332;51.384;0.040;2023-04-06T08:08:47;17.70;;;11.65;;
27706;SDS011;36332;51.384;0.040;2023-04-06T08:11:14;6.05;;;4.32;;
27706;SDS011;36332;51.384;0.040;2023-04-06T08:13:42;5.57;;;2.83;;
27706;SDS011;36332;51.384;0.040;2023-04-06T08:16:10;6.40;;;2.72;;
27706;SDS011;36332;51.384;0.040;2023-04-06T08:18:37;8.65;;;2.42;;
27706;SDS011;36332;51.384;0.040;2023-04-06T08:21:05;10.77;;;5.38;;
27706;SDS011;36332;51.384;0.040;2023-04-06T08:23:32;4.45;;;2.13;;
27706;SDS011;36332;51.384;0.040;2023-04-06T08:26:00;11.40;;;3.05;;
27706;SDS011;36332;51.384;0.040;2023-04-06T08:28:28;10.98;;;4.40;;
27706;SDS011;36332;51.384;0.040;2023-04-06T08:30:55;10.93;;;3.15;;
27706;SDS011;36332;51.384;0.040;2023-04-06T08:33:23;11.90;;;3.17;;
27706;SDS011;36332;51.384;0.040;2023-04-06T08:35:50;13.50;;;2.80;;
27706;SDS011;36332;51.384;0.040;2023-04-06T08:38:21;10.10;;;2.28;;
27706;SDS011;36332;51.384;0.040;2023-04-06T08:40:52;11.40;;;3.88;;
27706;SDS011;36332;51.384;0.040;2023-04-06T08:43:20;12.90;;;2.30;;
27706;SDS011;36332;51.384;0.040;2023-04-06T08:45:50;9.50;;;2.08;;
27706;SDS011;36332;51.384;0.040;2023-04-06T08:48:17;11.07;;;2.55;;
27706;SDS011;36332;51.384;0.040;2023-04-06T08:50:46;15.82;;;8.02;;
27706;SDS011;36332;51.384;0.040;2023-04-06T08:53:14;9.45;;;3.35;;
27706;SDS011;36332;51.384;0.040;2023-04-06T08:55:43;7.82;;;2.85;;
27706;SDS011;36332;51.384;0.040;2023-04-06T08:58:11;14.07;;;3.03;;
27706;SDS011;36332;51.384;0.040;2023-04-06T09:00:50;8.70;;;2.20;;
27706;SDS011;36332;51.384;0.040;2023-04-06T09:03:19;11.95;;;2.50;;
27706;SDS011;36332;51.384;0.040;2023-04-06T09:05:48;11.38;;;3.92;;
27706;SDS011;36332;51.384;0.040;2023-04-06T09:08:16;11.80;;;3.70;;
27706;SDS011;36332;51.384;0.040;2023-04-06T09:10:44;9.52;;;3.17;;
27706;SDS011;36332;51.384;0.040;2023-04-06T09:13:12;10.48;;;3.28;;
27706;SDS011;36332;51.384;0.040;2023-04-06T09:15:39;6.72;;;3.03;;
27706;SDS011;36332;51.384;0.040;2023-04-06T09:18:07;6.60;;;2.80;;
27706;SDS011;36332;51.384;0.040;2023-04-06T09:20:41;8.60;;;2.45;;
27706;SDS011;36332;51.384;0.040;2023-04-06T09:27:38;7.97;;;2.47;;
27706;SDS011;36332;51.384;0.040;2023-04-06T09:30:20;7.22;;;2.88;;
27706;SDS011;36332;51.384;0.040;2023-04-06T09:33:54;17.33;;;3.45;;
27706;SDS011;36332;51.384;0.040;2023-04-06T09:36:38;14.48;;;3.35;;
27706;SDS011;36332;51.384;0.040;2023-04-06T09:39:22;14.23;;;4.10;;
27706;SDS011;36332;51.384;0.040;2023-04-06T09:41:50;13.70;;;2.53;;
27706;SDS011;36332;51.384;0.040;2023-04-06T09:44:18;9.30;;;2.17;;
27706;SDS011;36332;51.384;0.040;2023-04-06T09:46:47;10.38;;;2.28;;
27706;SDS011;36332;51.384;0.040;2023-04-06T09:49:29;16.63;;;2.92;;
27706;SDS011;36332;51.384;0.040;2023-04-06T09:51:59;12.43;;;4.05;;
27706;SDS011;36332;51.384;0.040;2023-04-06T09:54:29;12.45;;;2.75;;
27706;SDS011;36332;51.384;0.040;2023-04-06T10:07:08;11.88;;;3.60;;
27706;SDS011;36332;51.384;0.040;2023-04-06T10:17:41;11.57;;;3.25;;
27706;SDS011;36332;51.384;0.040;2023-04-06T10:20:10;9.73;;;3.22;;
27706;SDS011;36332;51.384;0.040;2023-04-06T10:25:58;13.70;;;3.42;;
27706;SDS011;36332;51.384;0.040;2023-04-06T10:28:32;13.50;;;3.88;;
27706;SDS011;36332;51.384;0.040;2023-04-06T10:31:06;10.02;;;2.70;;
27706;SDS011;36332;51.384;0.040;2023-04-06T10:33:34;15.63;;;2.88;;
27706;SDS011;36332;51.384;0.040;2023-04-06T10:36:21;11.27;;;3.22;;
27706;SDS011;36332;51.384;0.040;2023-04-06T10:38:53;17.15;;;3.97;;
27706;SDS011;36332;51.384;0.040;2023-04-06T10:41:23;13.75;;;4.38;;
27706;SDS011;36332;51.384;0.040;2023-04-06T10:43:58;11.20;;;3.30;;
27706;SDS011;36332;51.384;0.040;2023-04-06T10:46:31;9.43;;;2.95;;
27706;SDS011;36332;51.384;0.040;2023-04-06T10:49:09;9.07;;;2.75;;
27706;SDS011;36332;51.384;0.040;2023-04-06T10:51:50;7.03;;;2.08;;
27706;SDS011;36332;51.384;0.040;2023-04-06T10:54:25;13.18;;;2.45;;
27706;SDS011;36332;51.384;0.040;2023-04-06T10:57:05;10.07;;;2.45;;
27706;SDS011;36332;51.384;0.040;2023-04-06T10:59:44;10.75;;;2.30;;
27706;SDS011;36332;51.384;0.040;2023-04-06T11:03:26;8.73;;;2.80;;
27706;SDS011;36332;51.384;0.040;2023-04-06T11:07:09;10.15;;;2.30;;
27706;SDS011;36332;51.384;0.040;2023-04-06T11:10:25;4.15;;;1.77;;
27706;SDS011;36332;51.384;0.040;2023-04-06T11:13:18;9.45;;;2.15;;
27706;SDS011;36332;51.384;0.040;2023-04-06T11:15:54;8.23;;;2.00;;
27706;SDS011;36332;51.384;0.040;2023-04-06T11:18:22;8.50;;;1.48;;
27706;SDS011;36332;51.384;0.040;2023-04-06T11:20:50;8.98;;;1.95;;
27706;SDS011;36332;51.384;0.040;2023-04-06T11:23:24;2.53;;;1.50;;
27706;SDS011;36332;51.384;0.040;2023-04-06T11:25:53;7.45;;;2.28;;
27706;SDS011;36332;51.384;0.040;2023-04-06T11:28:22;6.43;;;2.28;;
27706;SDS011;36332;51.384;0.040;2023-04-06T11:34:52;6.95;;;2.03;;
27706;SDS011;36332;51.384;0.040;2023-04-06T11:37:31;5.95;;;1.83;;
27706;SDS011;36332;51.384;0.040;2023-04-06T11:41:09;5.65;;;1.20;;
27706;SDS011;36332;51.384;0.040;2023-04-06T11:44:08;14.98;;;2.75;;
27706;SDS011;36332;51.384;0.040;2023-04-06T11:47:11;6.32;;;2.65;;
27706;SDS011;36332;51.384;0.040;2023-04-06T11:50:32;5.32;;;2.10;;
27706;SDS011;36332;51.384;0.040;2023-04-06T11:53:27;8.75;;;2.03;;
27706;SDS011;36332;51.384;0.040;2023-04-06T11:56:31;6.88;;;2.58;;
27706;SDS011;36332;51.384;0.040;2023-04-06T11:59:53;7.10;;;2.00;;
27706;SDS011;36332;51.384;0.040;2023-04-06T12:03:00;5.07;;;1.95;;
27706;SDS011;36332;51.384;0.040;2023-04-06T12:06:18;6.85;;;1.88;;
27706;SDS011;36332;51.384;0.040;2023-04-06T12:08:53;1.92;;;1.50;;
27706;SDS011;36332;51.384;0.040;2023-04-06T12:11:26;6.65;;;1.35;;
27706;SDS011;36332;51.384;0.040;2023-04-06T12:13:55;5.25;;;1.70;;
27706;SDS011;36332;51.384;0.040;2023-04-06T12:16:22;9.32;;;2.03;;
27706;SDS011;36332;51.384;0.040;2023-04-06T12:18:50;8.05;;;1.92;;
27706;SDS011;36332;51.384;0.040;2023-04-06T12:21:18;7.15;;;2.10;;
27706;SDS011;36332;51.384;0.040;2023-04-06T12:23:46;3.97;;;1.75;;
27706;SDS011;36332;51.384;0.040;2023-04-06T12:26:14;8.40;;;1.98;;
27706;SDS011;36332;51.384;0.040;2023-04-06T12:29:06;3.90;;;1.88;;
27706;SDS011;36332;51.384;0.040;2023-04-06T12:31:57;9.30;;;1.80;;
27706;SDS011;36332;51.384;0.040;2023-04-06T12:34:55;3.30;;;1.38;;
27706;SDS011;36332;51.384;0.040;2023-04-06T12:37:30;4.45;;;1.83;;
27706;SDS011;36332;51.384;0.040;2023-04-06T12:39:58;12.05;;;1.90;;
27706;SDS011;36332;51.384;0.040;2023-04-06T12:42:27;7.28;;;1.85;;
27706;SDS011;36332;51.384;0.040;2023-04-06T12:44:58;4.90;;;1.25;;
27706;SDS011;36332;51.384;0.040;2023-04-06T12:47:59;3.97;;;1.30;;
27706;SDS011;36332;51.384;0.040;2023-04-06T12:50:29;4.82;;;1.48;;
27706;SDS011;36332;51.384;0.040;2023-04-06T12:52:57;6.60;;;1.60;;
27706;SDS011;36332;51.384;0.040;2023-04-06T12:55:25;11.23;;;1.35;;
27706;SDS011;36332;51.384;0.040;2023-04-06T12:57:56;3.35;;;1.08;;
27706;SDS011;36332;51.384;0.040;2023-04-06T13:00:24;2.28;;;0.90;;
27706;SDS011;36332;51.384;0.040;2023-04-06T13:02:52;4.40;;;1.15;;
27706;SDS011;36332;51.384;0.040;2023-04-06T13:05:21;7.43;;;1.75;;
27706;SDS011;36332;51.384;0.040;2023-04-06T13:07:49;5.82;;;0.82;;
27706;SDS011;36332;51.384;0.040;2023-04-06T13:10:28;3.33;;;0.98;;
27706;SDS011;36332;51.384;0.040;2023-04-06T13:12:59;7.30;;;1.25;;
27706;SDS011;36332;51.384;0.040;2023-04-06T13:15:29;5.13;;;1.52;;
27706;SDS011;36332;51.384;0.040;2023-04-06T13:17:59;2.90;;;1.25;;
27706;SDS011;36332;51.384;0.040;2023-04-06T13:20:26;4.40;;;0.85;;
27706;SDS011;36332;51.384;0.040;2023-04-06T13:22:54;4.18;;;1.00;;
27706;SDS011;36332;51.384;0.040;2023-04-06T13:25:29;3.00;;;1.00;;
27706;SDS011;36332;51.384;0.040;2023-04-06T13:28:10;7.80;;;0.90;;
27706;SDS011;36332;51.384;0.040;2023-04-06T13:31:09;4.78;;;1.25;;
27706;SDS011;36332;51.384;0.040;2023-04-06T13:33:46;2.90;;;1.23;;
27706;SDS011;36332;51.384;0.040;2023-04-06T13:36:15;6.20;;;1.33;;
27706;SDS011;36332;51.384;0.040;2023-04-06T13:38:46;3.95;;;1.17;;
27706;SDS011;36332;51.384;0.040;2023-04-06T13:41:21;2.63;;;1.00;;
27706;SDS011;36332;51.384;0.040;2023-04-06T13:43:52;5.57;;;1.15;;
27706;SDS011;36332;51.384;0.040;2023-04-06T13:46:33;4.20;;;1.00;;
27706;SDS011;36332;51.384;0.040;2023-04-06T13:49:21;2.78;;;1.45;;
27706;SDS011;36332;51.384;0.040;2023-04-06T13:51:52;3.22;;;1.30;;
27706;SDS011;36332;51.384;0.040;2023-04-06T13:57:27;1.98;;;1.10;;
27706;SDS011;36332;51.384;0.040;2023-04-06T14:00:05;3.55;;;1.38;;
27706;SDS011;36332;51.384;0.040;2023-04-06T14:02:44;6.45;;;1.10;;
27706;SDS011;36332;51.384;0.040;2023-04-06T14:05:22;5.78;;;1.20;;
27706;SDS011;36332;51.384;0.040;2023-04-06T14:12:19;5.45;;;1.30;;
27706;SDS011;36332;51.384;0.040;2023-04-06T14:15:26;3.00;;;1.30;;
27706;SDS011;36332;51.384;0.040;2023-04-06T14:19:11;6.18;;;1.27;;
27706;SDS011;36332;51.384;0.040;2023-04-06T14:22:56;7.78;;;1.55;;
27706;SDS011;36332;51.384;0.040;2023-04-06T14:25:30;5.32;;;1.38;;
27706;SDS011;36332;51.384;0.040;2023-04-06T14:28:07;3.17;;;1.38;;
27706;SDS011;36332;51.384;0.040;2023-04-06T14:30:38;6.05;;;1.35;;
27706;SDS011;36332;51.384;0.040;2023-04-06T14:33:14;3.40;;;1.33;;
27706;SDS011;36332;51.384;0.040;2023-04-06T14:35:47;4.53;;;1.52;;
27706;SDS011;36332;51.384;0.040;2023-04-06T14:38:21;4.85;;;1.40;;
27706;SDS011;36332;51.384;0.040;2023-04-06T14:40:51;4.70;;;1.30;;
27706;SDS011;36332;51.384;0.040;2023-04-06T14:43:19;4.95;;;1.50;;
27706;SDS011;36332;51.384;0.040;2023-04-06T14:45:47;5.75;;;1.65;;
27706;SDS011;36332;51.384;0.040;2023-04-06T14:48:15;4.70;;;1.45;;
27706;SDS011;36332;51.384;0.040;2023-04-06T14:50:54;6.38;;;1.50;;
27706;SDS011;36332;51.384;0.040;2023-04-06T14:53:23;6.05;;;2.53;;
27706;SDS011;36332;51.384;0.040;2023-04-06T14:55:53;6.72;;;2.05;;
27706;SDS011;36332;51.384;0.040;2023-04-06T15:10:21;6.20;;;1.83;;
27706;SDS011;36332;51.384;0.040;2023-04-06T15:18:33;7.22;;;1.75;;
27706;SDS011;36332;51.384;0.040;2023-04-06T15:26:39;4.60;;;1.52;;
27706;SDS011;36332;51.384;0.040;2023-04-06T15:33:49;10.90;;;3.60;;
27706;SDS011;36332;51.384;0.040;2023-04-06T15:37:30;3.08;;;1.80;;
27706;SDS011;36332;51.384;0.040;2023-04-06T15:40:20;7.63;;;1.55;;
27706;SDS011;36332;51.384;0.040;2023-04-06T15:42:49;4.65;;;1.80;;
27706;SDS011;36332;51.384;0.040;2023-04-06T15:45:17;5.35;;;2.03;;
27706;SDS011;36332;51.384;0.040;2023-04-06T15:47:48;2.90;;;1.70;;
27706;SDS011;36332;51.384;0.040;2023-04-06T15:50:16;8.05;;;2.00;;
27706;SDS011;36332;51.384;0.040;2023-04-06T15:52:45;9.20;;;1.83;;
27706;SDS011;36332;51.384;0.040;2023-04-06T15:55:13;3.50;;;1.75;;
27706;SDS011;36332;51.384;0.040;2023-04-06T15:57:41;4.53;;;1.70;;
27706;SDS011;36332;51.384;0.040;2023-04-06T16:00:09;6.10;;;1.73;;
27706;SDS011;36332;51.384;0.040;2023-04-06T16:02:37;4.28;;;1.77;;
27706;SDS011;36332;51.384;0.040;2023-04-06T16:05:06;4.72;;;1.88;;
27706;SDS011;36332;51.384;0.040;2023-04-06T16:07:34;8.40;;;1.98;;
27706;SDS011;36332;51.384;0.040;2023-04-06T16:10:02;8.02;;;2.00;;
27706;SDS011;36332;51.384;0.040;2023-04-06T16:12:30;3.85;;;1.70;;
27706;SDS011;36332;51.384;0.040;2023-04-06T16:15:01;6.93;;;2.20;;
27706;SDS011;36332;51.384;0.040;2023-04-06T16:17:29;2.83;;;1.83;;
27706;SDS011;36332;51.384;0.040;2023-04-06T16:19:57;4.05;;;1.50;;
27706;SDS011;36332;51.384;0.040;2023-04-06T16:22:25;4.15;;;2.38;;